createdAt,value
2023-02-23T00:01:01.831Z,34.92
2023-02-23T00:03:03.592Z,37.45
2023-02-23T00:05:05.492Z,35.55
2023-02-23T00:07:07.003Z,38.67
2023-02-23T00:09:22.768Z,31.75
2023-02-23T00:11:24.704Z,33.35
2023-02-23T00:13:26.207Z,32.17
2023-02-23T00:15:28.326Z,33.90
2023-02-23T00:17:31.572Z,31.77
2023-02-23T00:19:37.823Z,31.02
2023-02-23T00:21:41.174Z,31.35
2023-02-23T00:23:44.274Z,33.08
2023-02-23T00:25:46.354Z,30.60
2023-02-23T00:27:48.164Z,34.83
2023-02-23T00:29:49.881Z,41.00
2023-02-23T00:31:52.453Z,48.63
2023-02-23T00:33:56.050Z,42.08
2023-02-23T00:36:05.029Z,48.00
2023-02-23T00:38:06.533Z,48.42
2023-02-23T00:40:13.835Z,51.60
2023-02-23T00:42:15.988Z,39.60
2023-02-23T00:44:17.957Z,37.72
2023-02-23T00:46:23.661Z,34.38
2023-02-23T00:48:25.173Z,34.92
2023-02-23T00:50:26.681Z,32.67
2023-02-23T00:52:29.053Z,38.20
2023-02-23T00:54:30.546Z,32.92
2023-02-23T00:56:32.218Z,35.50
2023-02-23T00:58:34.117Z,38.28
2023-02-23T01:00:42.242Z,32.20
2023-02-23T01:02:43.918Z,33.05
2023-02-23T01:04:45.624Z,36.78
2023-02-23T01:06:47.165Z,42.25
2023-02-23T01:08:52.319Z,47.85
2023-02-23T01:10:54.015Z,51.55
2023-02-23T01:12:55.544Z,41.92
2023-02-23T01:14:57.038Z,42.60
2023-02-23T01:16:58.777Z,37.33
2023-02-23T01:19:03.493Z,33.42
2023-02-23T01:21:13.593Z,37.88
2023-02-23T01:23:15.981Z,33.70
2023-02-23T01:25:18.737Z,34.08
2023-02-23T01:27:20.242Z,33.30
2023-02-23T01:29:21.873Z,34.53
2023-02-23T01:31:24.324Z,33.53
2023-02-23T01:33:25.867Z,35.13
2023-02-23T01:35:27.485Z,35.70
2023-02-23T01:37:29.018Z,37.42
2023-02-23T01:39:33.083Z,40.70
2023-02-23T01:41:36.709Z,38.33
2023-02-23T01:43:55.528Z,36.53
2023-02-23T01:45:58.166Z,33.45
2023-02-23T01:48:04.332Z,33.08
2023-02-23T01:50:06.099Z,32.95
2023-02-23T01:52:14.885Z,36.97
2023-02-23T01:54:21.440Z,29.30
2023-02-23T01:56:27.720Z,36.50
2023-02-23T01:58:30.815Z,40.00
2023-02-23T02:00:36.557Z,33.50
2023-02-23T02:02:38.097Z,32.67
2023-02-23T02:04:45.027Z,33.53
2023-02-23T02:06:53.430Z,39.17
2023-02-23T02:09:00.621Z,38.92
2023-02-23T02:11:09.366Z,37.30
2023-02-23T02:13:15.560Z,37.33
2023-02-23T02:15:17.557Z,36.38
2023-02-23T02:17:40.254Z,34.90
2023-02-23T02:20:32.689Z,37.10
2023-02-23T02:23:02.014Z,37.88
2023-02-23T02:25:28.445Z,33.25
2023-02-23T02:28:08.787Z,38.08
2023-02-23T02:31:02.830Z,41.22
2023-02-23T02:33:33.055Z,39.75
2023-02-23T02:35:58.126Z,35.92
2023-02-23T02:38:11.390Z,33.35
2023-02-23T02:40:54.621Z,30.33
2023-02-23T02:43:11.711Z,32.80
2023-02-23T02:45:27.513Z,28.23
2023-02-23T02:47:50.467Z,29.83
2023-02-23T02:50:06.717Z,28.90
2023-02-23T02:52:40.284Z,30.15
2023-02-23T02:54:47.813Z,33.63
2023-02-23T02:56:52.100Z,26.65
2023-02-23T02:58:54.764Z,30.33
2023-02-23T03:01:15.311Z,26.38
2023-02-23T03:03:52.343Z,26.50
2023-02-23T03:06:13.323Z,24.10
2023-02-23T03:08:39.341Z,26.05
2023-02-23T03:11:15.896Z,25.00
2023-02-23T03:14:07.307Z,25.63
2023-02-23T03:16:55.983Z,23.83
2023-02-23T03:19:28.991Z,23.55
2023-02-23T03:22:12.127Z,26.27
2023-02-23T03:24:51.468Z,23.65
2023-02-23T03:27:17.998Z,25.13
2023-02-23T03:30:10.457Z,23.38
2023-02-23T03:32:41.658Z,20.52
2023-02-23T03:35:20.318Z,22.73
2023-02-23T03:37:58.510Z,20.65
2023-02-23T03:40:24.974Z,28.48
2023-02-23T03:42:51.255Z,23.35
2023-02-23T03:45:14.188Z,21.60
2023-02-23T03:47:37.139Z,24.13
2023-02-23T03:49:58.655Z,27.63
2023-02-23T03:52:26.148Z,28.73
2023-02-23T03:54:53.266Z,22.88
2023-02-23T03:57:16.139Z,29.75
2023-02-23T03:59:39.570Z,27.52
2023-02-23T04:02:00.271Z,23.60
2023-02-23T04:04:23.218Z,30.38
2023-02-23T04:06:49.647Z,29.85
2023-02-23T04:09:11.609Z,28.55
2023-02-23T04:11:49.722Z,25.20
2023-02-23T04:13:57.600Z,25.20
2023-02-23T04:16:09.433Z,25.63
2023-02-23T04:18:18.128Z,22.38
2023-02-23T04:20:20.337Z,19.00
2023-02-23T04:22:22.889Z,25.33
2023-02-23T04:24:24.431Z,23.73
2023-02-23T04:26:25.942Z,26.02
2023-02-23T04:28:29.223Z,29.17
2023-02-23T04:30:30.903Z,27.58
2023-02-23T04:32:33.072Z,25.17
2023-02-23T04:34:34.635Z,26.45
2023-02-23T04:36:36.450Z,26.77
2023-02-23T04:38:38.024Z,26.02
2023-02-23T04:40:39.633Z,22.85
2023-02-23T04:42:41.857Z,23.40
2023-02-23T04:44:43.579Z,21.45
2023-02-23T04:46:45.428Z,24.23
2023-02-23T04:48:47.367Z,20.83
2023-02-23T04:50:52.707Z,22.17
2023-02-23T04:52:54.293Z,21.00
2023-02-23T04:54:55.804Z,21.95
2023-02-23T04:56:57.413Z,23.65
2023-02-23T04:58:58.939Z,21.70
2023-02-23T05:01:08.795Z,25.23
2023-02-23T05:03:10.820Z,19.73
2023-02-23T05:05:13.050Z,24.92
2023-02-23T05:07:14.590Z,24.00
2023-02-23T05:09:16.339Z,26.40
2023-02-23T05:11:18.339Z,27.55
2023-02-23T05:13:20.654Z,24.25
2023-02-23T05:15:22.551Z,30.10
2023-02-23T05:17:24.534Z,24.00
2023-02-23T05:19:26.290Z,28.23
2023-02-23T05:21:27.846Z,25.08
2023-02-23T05:23:30.382Z,29.48
2023-02-23T05:25:31.927Z,27.58
2023-02-23T05:27:34.081Z,28.15
2023-02-23T05:29:35.638Z,25.73
2023-02-23T05:31:37.272Z,31.77
2023-02-23T05:33:42.815Z,25.23
2023-02-23T05:35:44.518Z,30.90
2023-02-23T05:37:46.000Z,34.28
2023-02-23T05:39:47.767Z,26.55
2023-02-23T05:41:49.342Z,30.17
2023-02-23T05:43:53.605Z,24.58
2023-02-23T05:45:55.108Z,27.58
2023-02-23T05:47:56.843Z,24.15
2023-02-23T05:49:58.601Z,22.42
2023-02-23T05:52:00.112Z,26.95
2023-02-23T05:54:01.839Z,21.63
2023-02-23T05:56:05.317Z,25.88
2023-02-23T05:58:07.223Z,28.92
2023-02-23T06:00:10.263Z,21.48
2023-02-23T06:02:11.775Z,25.52
2023-02-23T06:04:14.191Z,25.55
2023-02-23T06:06:16.578Z,25.60
2023-02-23T06:08:18.049Z,27.17
2023-02-23T06:10:19.831Z,64.50
2023-02-23T06:12:21.392Z,22.23
2023-02-23T06:14:22.941Z,30.42
2023-02-23T06:16:24.617Z,21.70
2023-02-23T06:18:27.045Z,19.73
2023-02-23T06:20:28.581Z,21.52
2023-02-23T06:22:30.234Z,19.33
2023-02-23T06:24:31.999Z,23.10
2023-02-23T06:26:34.093Z,21.70
2023-02-23T06:28:36.036Z,32.22
2023-02-23T06:30:38.516Z,20.95
2023-02-23T06:32:40.211Z,24.25
2023-02-23T06:34:41.816Z,18.58
2023-02-23T06:36:43.414Z,18.45
2023-02-23T06:38:45.747Z,21.85
2023-02-23T06:40:47.693Z,17.35
2023-02-23T06:42:49.204Z,16.60
2023-02-23T06:44:50.721Z,21.40
2023-02-23T06:46:52.329Z,14.30
2023-02-23T06:48:57.881Z,23.27
2023-02-23T06:51:00.229Z,23.42
2023-02-23T06:53:01.846Z,20.70
2023-02-23T06:55:03.663Z,38.00
2023-02-23T06:57:05.388Z,32.67
2023-02-23T06:59:07.267Z,26.15
2023-02-23T07:01:10.072Z,19.27
2023-02-23T07:03:11.579Z,21.08
2023-02-23T07:05:13.120Z,25.42
2023-02-23T07:07:15.270Z,21.88
2023-02-23T07:09:16.783Z,26.80
2023-02-23T07:11:19.723Z,20.85
2023-02-23T07:13:22.034Z,22.05
2023-02-23T07:15:23.548Z,18.77
2023-02-23T07:17:25.091Z,22.27
2023-02-23T07:19:26.657Z,17.45
2023-02-23T07:21:28.233Z,19.30
2023-02-23T07:23:29.798Z,19.55
2023-02-23T07:25:31.444Z,19.98
2023-02-23T07:27:32.998Z,27.42
2023-02-23T07:29:34.678Z,14.50
2023-02-23T07:31:37.769Z,26.98
2023-02-23T07:33:39.422Z,21.05
2023-02-23T07:35:42.383Z,19.90
2023-02-23T07:37:43.991Z,15.55
2023-02-23T07:39:46.158Z,17.38
2023-02-23T07:41:47.663Z,31.85
2023-02-23T07:43:49.342Z,19.83
2023-02-23T07:45:51.743Z,17.85
2023-02-23T07:47:53.331Z,16.67
2023-02-23T07:49:54.842Z,17.75
2023-02-23T07:51:56.638Z,51.67
2023-02-23T07:54:03.622Z,24.90
2023-02-23T07:56:05.841Z,22.90
2023-02-23T07:58:08.168Z,21.15
2023-02-23T08:00:11.292Z,18.95
2023-02-23T08:02:14.094Z,31.70
2023-02-23T08:04:15.629Z,16.65
2023-02-23T08:06:18.321Z,15.02
2023-02-23T08:08:20.048Z,14.68
2023-02-23T08:10:21.698Z,18.60
2023-02-23T08:12:23.251Z,17.83
2023-02-23T08:14:24.917Z,16.30
2023-02-23T08:16:30.926Z,17.48
2023-02-23T08:18:32.994Z,14.50
2023-02-23T08:20:34.530Z,18.15
2023-02-23T08:22:48.317Z,19.52
2023-02-23T08:24:50.250Z,19.40
2023-02-23T08:26:51.920Z,24.73
2023-02-23T08:28:54.727Z,18.42
2023-02-23T08:30:56.446Z,16.48
2023-02-23T08:32:58.415Z,19.98
2023-02-23T08:35:01.203Z,20.25
2023-02-23T08:37:02.758Z,15.95
2023-02-23T08:39:07.452Z,22.70
2023-02-23T08:41:08.984Z,17.48
2023-02-23T08:43:10.584Z,13.95
2023-02-23T08:45:12.564Z,31.50
2023-02-23T08:47:16.419Z,50.13
2023-02-23T08:49:17.976Z,49.00
2023-02-23T08:51:19.795Z,88.93
2023-02-23T08:53:23.066Z,77.63
2023-02-23T08:55:24.633Z,135.02
2023-02-23T08:57:27.087Z,287.20
2023-02-23T08:59:28.569Z,37.10
2023-02-23T09:01:30.199Z,140.02
2023-02-23T09:03:33.820Z,186.00
2023-02-23T09:05:38.290Z,88.43
2023-02-23T09:07:40.640Z,376.95
2023-02-23T09:09:42.249Z,175.38
2023-02-23T09:11:43.788Z,132.02
2023-02-23T09:13:45.344Z,85.55
2023-02-23T09:15:47.921Z,151.43
2023-02-23T09:17:49.582Z,120.65
2023-02-23T09:19:51.160Z,36.72
2023-02-23T09:21:52.656Z,72.78
2023-02-23T09:23:56.226Z,43.42
2023-02-23T09:25:57.894Z,51.45
2023-02-23T09:28:02.227Z,44.92
2023-02-23T09:30:04.764Z,68.00
2023-02-23T09:32:06.528Z,49.75
2023-02-23T09:34:09.474Z,64.43
2023-02-23T09:36:16.237Z,116.13
2023-02-23T09:38:17.832Z,97.30
2023-02-23T09:40:23.947Z,31.40
2023-02-23T09:42:42.366Z,50.55
2023-02-23T09:44:58.704Z,78.93
2023-02-23T09:47:34.065Z,37.80
2023-02-23T09:49:40.052Z,28.02
2023-02-23T09:51:47.257Z,23.88
2023-02-23T09:53:55.121Z,19.45
2023-02-23T09:55:58.644Z,26.77
2023-02-23T09:58:08.879Z,34.35
2023-02-23T10:00:24.237Z,40.80
2023-02-23T10:03:10.893Z,19.25
2023-02-23T10:05:14.668Z,50.03
2023-02-23T10:07:44.185Z,23.50
2023-02-23T10:09:59.858Z,22.30
2023-02-23T10:12:12.137Z,19.38
2023-02-23T10:14:45.947Z,32.40
2023-02-23T10:16:50.797Z,20.20
2023-02-23T10:19:06.417Z,21.17
2023-02-23T10:21:17.225Z,18.95
2023-02-23T10:23:31.245Z,21.02
2023-02-23T10:25:38.556Z,22.63
2023-02-23T10:27:43.369Z,23.50
2023-02-23T10:29:51.655Z,26.17
2023-02-23T10:31:58.235Z,19.50
2023-02-23T10:34:06.397Z,24.27
2023-02-23T10:36:19.656Z,22.92
2023-02-23T10:38:21.241Z,22.85
2023-02-23T10:40:28.848Z,18.13
2023-02-23T10:42:31.942Z,28.70
2023-02-23T10:44:33.922Z,30.75
2023-02-23T10:46:39.600Z,21.88
2023-02-23T10:48:43.292Z,30.42
2023-02-23T10:50:45.856Z,20.75
2023-02-23T10:52:49.137Z,23.92
2023-02-23T10:54:51.982Z,23.20
2023-02-23T10:56:53.563Z,19.08
2023-02-23T10:58:57.384Z,27.08
2023-02-23T11:01:01.964Z,18.58
2023-02-23T11:03:19.147Z,18.73
2023-02-23T11:05:37.815Z,27.88
2023-02-23T11:07:39.430Z,19.63
2023-02-23T11:09:47.063Z,22.70
2023-02-23T11:12:22.134Z,24.27
2023-02-23T11:14:25.504Z,21.52
2023-02-23T11:16:30.651Z,18.98
2023-02-23T11:18:32.795Z,17.23
2023-02-23T11:20:44.388Z,20.27
2023-02-23T11:22:46.138Z,22.80
2023-02-23T11:24:47.896Z,20.75
2023-02-23T11:26:51.691Z,20.98
2023-02-23T11:28:57.402Z,32.55
2023-02-23T11:31:14.693Z,17.65
2023-02-23T11:33:21.596Z,18.10
2023-02-23T11:35:23.133Z,19.38
2023-02-23T11:37:24.669Z,20.33
2023-02-23T11:39:26.138Z,20.40
2023-02-23T11:41:27.788Z,19.42
2023-02-23T11:43:29.572Z,22.65
2023-02-23T11:45:33.731Z,16.67
2023-02-23T11:47:40.502Z,21.05
2023-02-23T11:49:45.700Z,18.95
2023-02-23T11:51:49.905Z,29.42
2023-02-23T11:53:52.001Z,27.30
2023-02-23T11:55:55.872Z,16.92
2023-02-23T11:58:22.600Z,25.30
2023-02-23T12:00:30.621Z,22.55
2023-02-23T12:02:33.074Z,12.93
2023-02-23T12:04:40.464Z,25.83
2023-02-23T12:06:42.184Z,21.83
2023-02-23T12:08:49.153Z,20.70
2023-02-23T12:10:58.187Z,28.05
2023-02-23T12:13:26.405Z,20.85
2023-02-23T12:15:48.999Z,22.05
2023-02-23T12:17:57.024Z,19.23
2023-02-23T12:20:04.229Z,24.02
2023-02-23T12:22:12.336Z,23.13
2023-02-23T12:24:40.992Z,26.73
2023-02-23T12:26:56.832Z,24.02
2023-02-23T12:29:05.619Z,20.70
2023-02-23T12:31:23.683Z,30.27
2023-02-23T12:33:40.335Z,20.83
2023-02-23T12:35:56.201Z,18.02
2023-02-23T12:38:06.632Z,25.27
2023-02-23T12:40:17.869Z,26.88
2023-02-23T12:42:44.061Z,29.17
2023-02-23T12:44:58.790Z,37.22
2023-02-23T12:47:09.119Z,22.25
2023-02-23T12:49:18.740Z,21.40
2023-02-23T12:51:32.448Z,23.38
2023-02-23T12:53:42.311Z,26.75
2023-02-23T12:57:55.044Z,24.77
2023-02-23T13:00:32.450Z,24.58
2023-02-23T13:02:46.534Z,23.10
2023-02-23T13:05:13.163Z,29.15
2023-02-23T13:07:24.754Z,21.23
2023-02-23T13:09:55.642Z,25.55
2023-02-23T13:12:07.616Z,21.20
2023-02-23T13:14:36.757Z,28.60
2023-02-23T13:16:54.952Z,17.77
2023-02-23T13:19:13.118Z,28.25
2023-02-23T13:21:33.345Z,25.80
2023-02-23T13:23:41.292Z,27.88
2023-02-23T13:25:50.721Z,25.30
2023-02-23T13:27:58.189Z,32.55
2023-02-23T13:30:00.575Z,26.98
2023-02-23T13:32:04.980Z,25.23
2023-02-23T13:34:11.737Z,24.42
2023-02-23T13:36:13.962Z,27.30
2023-02-23T13:38:30.201Z,22.38
2023-02-23T13:40:41.157Z,28.35
2023-02-23T13:43:18.327Z,29.05
2023-02-23T13:45:48.969Z,29.60
2023-02-23T13:48:01.131Z,19.05
2023-02-23T13:50:19.145Z,30.30
2023-02-23T13:52:42.624Z,50.47
2023-02-23T13:54:58.625Z,53.17
2023-02-23T13:57:03.610Z,54.05
2023-02-23T13:59:15.659Z,32.08
2023-02-23T14:01:22.351Z,33.47
2023-02-23T14:03:29.064Z,159.48
2023-02-23T14:05:31.633Z,95.05
2023-02-23T14:07:39.932Z,62.22
2023-02-23T14:09:47.433Z,36.22
2023-02-23T14:12:05.378Z,33.85
2023-02-23T14:14:07.088Z,25.83
2023-02-23T14:16:20.272Z,35.10
2023-02-23T14:18:21.765Z,35.55
2023-02-23T14:20:38.548Z,30.90
2023-02-23T14:23:06.141Z,44.47
2023-02-23T14:25:32.482Z,36.83
2023-02-23T14:27:44.023Z,36.85
2023-02-23T14:30:11.596Z,32.30
2023-02-23T14:32:13.394Z,27.85
2023-02-23T14:34:15.243Z,32.53
2023-02-23T14:36:22.521Z,44.90
2023-02-23T14:38:45.668Z,35.70
2023-02-23T14:40:49.631Z,39.20
2023-02-23T14:42:53.668Z,34.83
2023-02-23T14:44:57.059Z,36.83
2023-02-23T14:47:11.788Z,40.38
2023-02-23T14:49:20.103Z,35.22
2023-02-23T14:51:26.042Z,26.67
2023-02-23T14:53:29.977Z,114.32
2023-02-23T14:55:35.502Z,152.55
2023-02-23T14:57:38.512Z,38.13
2023-02-23T14:59:42.434Z,50.25
2023-02-23T15:01:44.029Z,51.25
2023-02-23T15:04:10.171Z,131.75
2023-02-23T15:06:11.799Z,48.50
2023-02-23T15:08:18.732Z,108.03
2023-02-23T15:10:39.123Z,155.82
2023-02-23T15:12:41.084Z,81.28
2023-02-23T15:14:43.751Z,72.53
2023-02-23T15:16:45.314Z,74.13
2023-02-23T15:18:48.091Z,239.02
2023-02-23T15:20:50.448Z,88.90
2023-02-23T15:22:55.158Z,198.85
2023-02-23T15:25:00.699Z,172.52
2023-02-23T15:27:02.264Z,106.93
2023-02-23T15:29:25.313Z,397.45
2023-02-23T15:31:30.743Z,116.75
2023-02-23T15:33:33.344Z,99.80
2023-02-23T15:35:42.366Z,78.28
2023-02-23T15:37:56.603Z,238.77
2023-02-23T15:40:16.525Z,228.00
2023-02-23T15:42:22.627Z,140.80
2023-02-23T15:44:42.363Z,114.20
2023-02-23T15:46:57.249Z,96.18
2023-02-23T15:49:00.944Z,169.95
2023-02-23T15:51:05.909Z,105.78
2023-02-23T15:53:14.843Z,455.80
2023-02-23T15:55:36.794Z,294.05
2023-02-23T15:57:59.177Z,143.68
2023-02-23T16:00:08.029Z,250.75
2023-02-23T16:02:19.518Z,149.00
2023-02-23T16:04:26.061Z,184.60
2023-02-23T16:06:36.949Z,97.65
2023-02-23T16:08:56.160Z,571.58
2023-02-23T16:11:16.117Z,165.43
2023-02-23T16:13:21.178Z,218.52
2023-02-23T16:15:24.282Z,458.90
2023-02-23T16:17:30.163Z,221.93
2023-02-23T16:19:32.575Z,273.40
2023-02-23T16:21:37.586Z,498.00
2023-02-23T16:23:45.906Z,207.48
2023-02-23T16:25:47.484Z,424.48
2023-02-23T16:28:01.258Z,394.25
2023-02-23T16:30:23.249Z,307.88
2023-02-23T16:32:25.317Z,123.30
2023-02-23T16:34:28.845Z,268.52
2023-02-23T16:36:40.284Z,272.17
2023-02-23T16:39:03.049Z,299.23
2023-02-23T16:41:05.778Z,351.00
2023-02-23T16:43:07.291Z,568.03
2023-02-23T16:45:15.520Z,175.43
2023-02-23T16:47:22.940Z,447.65
2023-02-23T16:49:24.602Z,202.88
2023-02-23T16:51:27.370Z,297.52
2023-02-23T16:53:28.926Z,301.63
2023-02-23T16:55:39.188Z,219.68
2023-02-23T16:57:41.439Z,255.45
2023-02-23T16:59:43.065Z,289.52
2023-02-23T17:01:49.540Z,321.45
2023-02-23T17:03:53.125Z,181.25
2023-02-23T17:05:55.373Z,169.68
2023-02-23T17:07:58.841Z,173.73
2023-02-23T17:10:00.392Z,188.98
2023-02-23T17:12:01.950Z,301.95
2023-02-23T17:14:03.521Z,215.93
2023-02-23T17:16:07.630Z,294.27
2023-02-23T17:18:09.157Z,260.40
2023-02-23T17:20:17.533Z,116.70
2023-02-23T17:22:19.103Z,146.05
2023-02-23T17:24:24.534Z,279.00
2023-02-23T17:26:26.050Z,295.88
2023-02-23T17:28:27.564Z,577.55
2023-02-23T17:30:29.775Z,491.33
2023-02-23T17:32:32.026Z,410.92
2023-02-23T17:34:33.674Z,287.45
2023-02-23T17:36:35.182Z,204.95
2023-02-23T17:38:36.730Z,200.60
2023-02-23T17:40:39.620Z,168.18
2023-02-23T17:42:41.242Z,292.05
2023-02-23T17:44:43.253Z,470.67
2023-02-23T17:46:44.882Z,153.38
2023-02-23T17:48:48.975Z,186.75
2023-02-23T17:51:02.457Z,138.95
2023-02-23T17:53:04.019Z,196.57
2023-02-23T17:55:05.990Z,147.52
2023-02-23T17:57:07.747Z,152.82
2023-02-23T17:59:09.526Z,181.75
2023-02-23T18:01:11.480Z,195.98
2023-02-23T18:03:13.254Z,148.45
2023-02-23T18:05:15.309Z,363.85
2023-02-23T18:07:18.701Z,234.52
2023-02-23T18:09:20.397Z,274.95
2023-02-23T18:11:22.487Z,245.57
2023-02-23T18:13:25.090Z,294.27
2023-02-23T18:15:26.792Z,341.40
2023-02-23T18:17:28.403Z,419.35
2023-02-23T18:19:30.725Z,232.88
2023-02-23T18:21:34.813Z,409.17
2023-02-23T18:23:36.357Z,221.75
2023-02-23T18:25:38.096Z,264.35
2023-02-23T18:27:39.651Z,211.65
2023-02-23T18:29:41.168Z,99.97
2023-02-23T18:31:43.257Z,124.88
2023-02-23T18:33:44.961Z,110.07
2023-02-23T18:35:46.715Z,242.80
2023-02-23T18:37:49.672Z,105.05
2023-02-23T18:39:53.344Z,69.72
2023-02-23T18:41:54.901Z,144.80
2023-02-23T18:44:08.616Z,67.13
2023-02-23T18:46:11.946Z,322.27
2023-02-23T18:48:14.573Z,193.13
2023-02-23T18:50:19.480Z,101.90
2023-02-23T18:52:21.249Z,82.53
2023-02-23T18:54:25.975Z,84.43
2023-02-23T18:56:28.235Z,95.85
2023-02-23T18:58:29.757Z,114.97
2023-02-23T19:00:37.089Z,139.77
2023-02-23T19:02:40.553Z,168.73
2023-02-23T19:04:42.372Z,148.40
2023-02-23T19:06:45.916Z,151.23
2023-02-23T19:08:55.646Z,111.43
2023-02-23T19:12:59.787Z,87.88
2023-02-23T19:15:01.477Z,92.82
2023-02-23T19:17:03.081Z,84.60
2023-02-23T19:19:07.523Z,91.65
2023-02-23T19:21:09.082Z,91.82
2023-02-23T19:23:13.244Z,88.90
2023-02-23T19:25:15.129Z,110.90
2023-02-23T19:27:18.114Z,90.53
2023-02-23T19:29:19.663Z,83.63
2023-02-23T19:31:23.282Z,83.70
2023-02-23T19:33:25.326Z,78.22
2023-02-23T19:35:28.180Z,73.40
2023-02-23T19:37:29.674Z,73.10
2023-02-23T19:39:31.305Z,103.00
2023-02-23T19:41:34.438Z,79.60
2023-02-23T19:43:35.960Z,74.05
2023-02-23T19:45:37.848Z,69.30
2023-02-23T19:47:40.548Z,80.43
2023-02-23T19:49:42.090Z,68.85
2023-02-23T19:51:44.893Z,76.20
2023-02-23T19:53:46.563Z,85.15
2023-02-23T19:55:49.628Z,104.13
2023-02-23T19:57:52.163Z,87.15
2023-02-23T19:59:53.863Z,170.48
2023-02-23T20:01:55.508Z,71.10
2023-02-23T20:04:04.379Z,171.90
2023-02-23T20:06:07.010Z,132.70
2023-02-23T20:08:09.691Z,109.63
2023-02-23T20:10:16.348Z,649.00
2023-02-23T20:12:17.891Z,409.55
2023-02-23T20:14:19.710Z,182.82
2023-02-23T20:16:21.621Z,206.48
2023-02-23T20:18:24.996Z,156.40
2023-02-23T20:20:29.220Z,342.58
2023-02-23T20:22:33.392Z,190.05
2023-02-23T20:24:34.894Z,298.02
2023-02-23T20:26:37.442Z,174.52
2023-02-23T20:28:40.322Z,257.52
2023-02-23T20:30:47.244Z,320.52
2023-02-23T20:32:49.617Z,299.73
2023-02-23T20:34:52.014Z,82.35
2023-02-23T20:36:55.748Z,131.60
2023-02-23T20:38:57.367Z,85.63
2023-02-23T20:41:03.175Z,107.97
2023-02-23T20:43:04.938Z,219.10
2023-02-23T20:45:06.886Z,97.70
2023-02-23T20:47:10.162Z,92.60
2023-02-23T20:49:15.186Z,233.95
2023-02-23T20:51:19.270Z,302.80
2023-02-23T20:53:22.386Z,279.10
2023-02-23T20:55:27.239Z,90.57
2023-02-23T20:57:29.738Z,198.40
2023-02-23T20:59:32.309Z,82.07
2023-02-23T21:01:33.941Z,77.35
2023-02-23T21:03:35.786Z,88.13
2023-02-23T21:05:40.444Z,87.72
2023-02-23T21:07:42.053Z,76.97
2023-02-23T21:09:43.570Z,80.43
2023-02-23T21:11:45.847Z,84.25
2023-02-23T21:13:48.019Z,75.85
2023-02-23T21:16:00.895Z,76.18
2023-02-23T21:18:03.563Z,66.88
2023-02-23T21:20:10.184Z,76.65
2023-02-23T21:22:16.339Z,79.78
2023-02-23T21:24:19.205Z,76.97
2023-02-23T21:26:21.695Z,80.43
2023-02-23T21:28:23.281Z,71.88
2023-02-23T21:30:28.589Z,77.13
2023-02-23T21:32:35.471Z,75.43
2023-02-23T21:34:37.193Z,78.80
2023-02-23T21:36:39.356Z,76.78
2023-02-23T21:38:43.567Z,90.97
2023-02-23T21:40:45.253Z,81.40
2023-02-23T21:42:47.699Z,93.68
2023-02-23T21:44:49.343Z,89.65
2023-02-23T21:46:51.929Z,92.55
2023-02-23T21:48:53.681Z,85.65
2023-02-23T21:51:02.554Z,92.80
2023-02-23T21:53:04.374Z,90.63
2023-02-23T21:55:13.248Z,98.72
2023-02-23T21:57:26.168Z,91.63
2023-02-23T21:59:27.874Z,93.07
2023-02-23T22:01:34.753Z,94.90
2023-02-23T22:03:36.324Z,106.10
2023-02-23T22:05:37.834Z,96.93
2023-02-23T22:07:39.892Z,103.47
2023-02-23T22:09:41.434Z,105.13
2023-02-23T22:11:45.998Z,105.63
2023-02-23T22:13:49.347Z,108.38
2023-02-23T22:15:50.880Z,97.07
2023-02-23T22:17:52.475Z,100.72
2023-02-23T22:19:55.054Z,104.22
2023-02-23T22:21:56.568Z,91.40
2023-02-23T22:23:58.112Z,74.32
2023-02-23T22:26:00.159Z,77.78
2023-02-23T22:28:01.980Z,75.97
2023-02-23T22:30:05.005Z,136.07
2023-02-23T22:32:06.724Z,90.47
2023-02-23T22:34:08.337Z,77.95
2023-02-23T22:36:18.103Z,76.70
2023-02-23T22:40:21.051Z,76.07
2023-02-23T22:42:24.345Z,74.53
2023-02-23T22:44:25.919Z,69.00
2023-02-23T22:46:27.487Z,69.95
2023-02-23T22:48:29.689Z,70.57
2023-02-23T22:50:31.259Z,67.43
2023-02-23T22:52:34.718Z,60.90
2023-02-23T22:54:37.285Z,75.10
2023-02-23T22:56:39.687Z,85.68
2023-02-23T22:58:42.281Z,64.50
2023-02-23T23:01:03.859Z,56.92
2023-02-23T23:03:05.463Z,58.85
2023-02-23T23:05:07.825Z,57.67
2023-02-23T23:07:10.536Z,68.75
2023-02-23T23:09:12.931Z,192.30
2023-02-23T23:11:23.652Z,80.00
2023-02-23T23:13:25.215Z,67.88
2023-02-23T23:15:26.843Z,61.92
2023-02-23T23:17:29.611Z,59.42
2023-02-23T23:19:38.873Z,67.60
2023-02-23T23:21:42.576Z,57.05
2023-02-23T23:23:45.200Z,58.67
2023-02-23T23:25:47.611Z,60.50
2023-02-23T23:27:53.902Z,60.40
2023-02-23T23:29:55.972Z,56.83
2023-02-23T23:31:57.806Z,54.17
2023-02-23T23:34:01.801Z,56.70
2023-02-23T23:36:06.911Z,52.42
2023-02-23T23:38:08.883Z,49.55
2023-02-23T23:40:14.742Z,50.60
2023-02-23T23:42:16.235Z,49.95
2023-02-23T23:44:21.242Z,49.03
2023-02-23T23:46:28.703Z,50.78
2023-02-23T23:48:30.309Z,61.20
2023-02-23T23:50:31.807Z,46.65
2023-02-23T23:52:35.377Z,53.13
2023-02-23T23:54:39.098Z,44.65
2023-02-23T23:56:41.353Z,46.30
2023-02-23T23:58:42.860Z,42.92
